Time;durP1;ratioP1;P1;durP2;ratioP2;P2;SDS_P1;SDS_P2;PMS_P1;PMS_P2;Temp;Humidity;BMP_temperature;BMP_pressure;BME280_temperature;BME280_humidity;BME280_pressure;Samples;Min_cycle;Max_cycle;Signal;HPM_P1;HPM_P2
2022/01/29 00:00:58;;;;;;;;;12.67;12.00;;;;;7.12;48.90;99653.91;6204835;28;97360;-67
2022/01/29 00:04:02;;;;;;;;;15.00;14.00;;;;;7.06;49.10;99651.94;6183062;28;99000;-70
2022/01/29 00:07:08;;;;;;;;;15.00;13.00;;;;;7.10;49.02;99658.59;6201196;28;96733;-68
2022/01/29 00:10:13;;;;;;;;;15.20;12.80;;;;;7.03;49.12;99656.84;6205132;28;97850;-68
2022/01/29 00:13:17;;;;;;;;;13.20;12.00;;;;;7.03;49.27;99652.31;6202379;28;96789;-68
2022/01/29 00:16:20;;;;;;;;;13.00;12.00;;;;;7.12;49.15;99661.09;6197417;28;98056;-69
2022/01/29 00:19:24;;;;;;;;;16.50;13.50;;;;;7.17;48.85;99656.03;6194052;28;96864;-69
2022/01/29 00:22:28;;;;;;;;;13.00;11.40;;;;;7.28;48.56;99659.09;6200747;28;97551;-69
2022/01/29 00:25:32;;;;;;;;;12.00;11.40;;;;;7.23;48.49;99666.84;6198118;28;97442;-68
2022/01/29 00:28:35;;;;;;;;;15.00;13.00;;;;;7.26;48.38;99673.72;6203844;28;97589;-70
2022/01/29 00:31:38;;;;;;;;;15.20;12.60;;;;;7.33;48.23;99672.00;6194157;28;99592;-69
2022/01/29 00:34:42;;;;;;;;;12.75;11.00;;;;;7.29;48.10;99678.72;6194229;28;99550;-67
2022/01/29 00:37:47;;;;;;;;;15.00;12.00;;;;;7.29;48.01;99676.88;6207415;28;97246;-68
2022/01/29 00:41:47;;;;;;;;;13.00;12.00;;;;;7.23;47.71;99685.63;6212147;28;97847;-70
2022/01/29 00:45:11;;;;;;;;;13.00;12.00;;;;;7.21;47.47;99685.00;6210101;28;98244;-69
2022/01/29 00:48:14;;;;;;;;;13.40;12.40;;;;;7.31;47.13;99690.94;6207289;28;97958;-68
2022/01/29 00:51:17;;;;;;;;;10.20;9.80;;;;;7.31;46.77;99684.75;6209551;28;97486;-68
2022/01/29 00:54:22;;;;;;;;;10.00;9.00;;;;;7.23;46.35;99684.81;6208571;28;98426;-69
2022/01/29 00:57:28;;;;;;;;;8.80;8.00;;;;;7.18;46.32;99677.31;6205224;28;99697;-69
2022/01/29 01:00:31;;;;;;;;;7.50;7.50;;;;;7.16;46.04;99681.19;6210051;28;97612;-67
2022/01/29 01:03:35;;;;;;;;;12.00;11.00;;;;;7.18;46.05;99692.56;6205491;28;97713;-69
2022/01/29 01:06:38;;;;;;;;;10.80;8.80;;;;;7.10;45.92;99679.22;6205116;28;97676;-69
2022/01/29 01:09:43;;;;;;;;;9.00;9.00;;;;;7.00;46.05;99674.09;6215140;28;97463;-69
2022/01/29 01:12:46;;;;;;;;;12.20;11.00;;;;;6.89;46.09;99674.53;6214824;28;96513;-68
2022/01/29 01:15:50;;;;;;;;;9.00;8.00;;;;;6.70;45.75;99669.63;6212476;28;97120;-68
2022/01/29 01:18:53;;;;;;;;;9.00;8.40;;;;;6.80;45.90;99678.25;6205523;28;99759;-68
2022/01/29 01:21:57;;;;;;;;;10.60;9.60;;;;;6.78;45.82;99665.06;6192665;28;96627;-69
2022/01/29 01:25:01;;;;;;;;;11.00;10.40;;;;;6.65;45.99;99663.97;6212407;28;97417;-67
2022/01/29 01:28:05;;;;;;;;;8.00;7.00;;;;;6.62;45.72;99672.34;6186485;28;97594;-69
2022/01/29 01:31:08;;;;;;;;;9.40;8.00;;;;;6.52;46.04;99661.88;6199925;28;97998;-69
2022/01/29 01:34:12;;;;;;;;;10.50;10.50;;;;;6.56;46.17;99662.34;6196407;28;97031;-70
2022/01/29 01:37:27;;;;;;;;;9.00;9.00;;;;;6.58;46.19;99655.81;6199145;28;97502;-69
2022/01/29 01:40:32;;;;;;;;;11.40;8.00;;;;;6.49;46.03;99655.03;6199358;28;96485;-69
2022/01/29 01:43:35;;;;;;;;;10.00;9.60;;;;;6.48;46.57;99653.38;6204733;28;98016;-67
2022/01/29 01:46:38;;;;;;;;;9.00;8.00;;;;;6.47;46.25;99654.38;6189177;28;97396;-69
2022/01/29 01:49:42;;;;;;;;;9.75;8.25;;;;;6.44;46.08;99645.88;6187971;28;97707;-69
2022/01/29 01:52:45;;;;;;;;;10.00;8.00;;;;;6.52;45.66;99640.44;6200770;28;97000;-69
2022/01/29 01:55:50;;;;;;;;;11.00;10.00;;;;;6.53;45.57;99642.13;6210392;28;98728;-70
2022/01/29 01:58:56;;;;;;;;;11.00;9.00;;;;;6.41;45.83;99636.31;6214093;28;97475;-68
2022/01/29 02:01:59;;;;;;;;;9.00;8.00;;;;;6.42;45.78;99631.81;6211818;28;96582;-67
2022/01/29 02:05:04;;;;;;;;;10.60;7.60;;;;;6.33;45.84;99632.88;6178290;28;98391;-69
2022/01/29 02:08:08;;;;;;;;;9.60;8.00;;;;;6.24;45.79;99628.56;6188891;28;97480;-67
2022/01/29 02:11:12;;;;;;;;;7.20;6.20;;;;;6.21;45.94;99634.25;6202802;28;96541;-68
2022/01/29 02:14:16;;;;;;;;;9.00;7.00;;;;;6.13;45.72;99626.28;6189834;28;97402;-68
2022/01/29 02:17:19;;;;;;;;;8.80;7.00;;;;;6.21;45.76;99634.25;6200580;28;97792;-69
2022/01/29 02:20:25;;;;;;;;;8.20;7.80;;;;;6.05;45.75;99636.03;6213633;28;97785;-69
2022/01/29 02:23:29;;;;;;;;;7.60;7.00;;;;;6.07;45.77;99634.00;6213215;28;96486;-67
2022/01/29 02:26:34;;;;;;;;;10.00;9.00;;;;;6.09;45.80;99645.38;6212363;28;96748;-68
2022/01/29 02:29:37;;;;;;;;;8.00;7.00;;;;;6.11;45.57;99633.66;6195453;28;96940;-70
2022/01/29 02:32:42;;;;;;;;;8.20;7.20;;;;;6.05;45.60;99640.53;6190832;28;97500;-68
2022/01/29 02:35:48;;;;;;;;;7.60;7.00;;;;;5.92;45.81;99642.94;6194256;28;96562;-67
2022/01/29 02:38:52;;;;;;;;;8.00;8.00;;;;;5.96;45.84;99654.97;6205287;28;97520;-69
2022/01/29 02:41:58;;;;;;;;;10.80;9.40;;;;;5.98;45.77;99653.78;6214156;28;96376;-68
2022/01/29 02:45:01;;;;;;;;;7.00;7.00;;;;;5.84;45.95;99653.66;6189462;28;96475;-68
2022/01/29 02:48:05;;;;;;;;;8.00;7.80;;;;;5.81;45.86;99651.31;6209940;28;97385;-69
2022/01/29 02:51:08;;;;;;;;;10.00;8.00;;;;;5.77;46.00;99648.13;6213026;28;97567;-69
2022/01/29 02:54:13;;;;;;;;;8.40;7.60;;;;;5.80;46.11;99657.69;6195673;28;97291;-69
2022/01/29 02:57:18;;;;;;;;;10.40;9.00;;;;;5.59;46.29;99634.16;6197113;28;97673;-70
2022/01/29 03:00:21;;;;;;;;;8.75;8.00;;;;;5.65;46.37;99649.53;6186445;28;97158;-69
2022/01/29 03:03:25;;;;;;;;;9.00;8.00;;;;;5.52;46.87;99666.09;6203482;28;97418;-69
2022/01/29 03:06:29;;;;;;;;;7.80;7.80;;;;;5.46;47.01;99645.41;6227343;28;98422;-68
2022/01/29 03:09:34;;;;;;;;;8.00;7.00;;;;;5.57;47.22;99654.91;6193736;28;96771;-69
2022/01/29 03:12:40;;;;;;;;;9.00;9.00;;;;;5.48;47.15;99650.56;6219907;28;97574;-68
2022/01/29 03:15:43;;;;;;;;;7.60;7.00;;;;;5.46;47.40;99628.50;6207928;28;96352;-68
2022/01/29 03:18:47;;;;;;;;;8.80;6.80;;;;;5.47;47.30;99649.72;6202478;28;98306;-67
2022/01/29 03:21:50;;;;;;;;;8.00;6.40;;;;;5.46;47.56;99656.09;6188349;28;97094;-67
2022/01/29 03:24:55;;;;;;;;;9.00;9.00;;;;;5.51;47.44;99645.72;6224556;28;97064;-67
2022/01/29 03:27:59;;;;;;;;;10.00;9.00;;;;;5.45;47.24;99641.03;6216182;28;96717;-67
2022/01/29 03:31:02;;;;;;;;;11.40;9.00;;;;;5.49;47.15;99638.84;6186149;28;98851;-69
2022/01/29 03:34:05;;;;;;;;;10.00;9.00;;;;;5.46;47.31;99637.38;6201199;28;97244;-68
2022/01/29 03:37:08;;;;;;;;;9.50;8.50;;;;;5.52;47.12;99634.00;6213403;28;96586;-68
2022/01/29 03:40:13;;;;;;;;;9.50;8.00;;;;;5.50;47.09;99629.84;6212201;28;96516;-68
2022/01/29 03:43:25;;;;;;;;;7.00;7.00;;;;;5.43;47.09;99636.84;6192876;28;97404;-69
2022/01/29 03:46:29;;;;;;;;;8.00;8.00;;;;;5.31;47.24;99625.72;6209389;28;97958;-68
2022/01/29 03:49:32;;;;;;;;;8.00;8.00;;;;;5.41;47.04;99630.88;6210606;28;97514;-69
2022/01/29 03:52:35;;;;;;;;;7.00;6.00;;;;;5.34;47.17;99640.56;6209755;28;96470;-69
2022/01/29 03:55:40;;;;;;;;;12.00;10.20;;;;;5.33;46.90;99637.06;6193651;28;96924;-68
2022/01/29 03:58:44;;;;;;;;;9.00;7.00;;;;;5.33;47.28;99633.53;6199179;28;98159;-68
2022/01/29 04:01:48;;;;;;;;;9.40;9.00;;;;;5.32;47.24;99634.56;6211709;28;96428;-67
2022/01/29 04:04:51;;;;;;;;;10.60;9.60;;;;;5.30;47.51;99626.69;6188634;28;96701;-68
2022/01/29 04:07:54;;;;;;;;;8.80;7.80;;;;;5.30;47.59;99626.69;6206939;28;97419;-68
2022/01/29 04:10:59;;;;;;;;;9.20;8.80;;;;;5.18;47.75;99620.06;6212388;28;97028;-69
2022/01/29 04:14:02;;;;;;;;;9.00;8.00;;;;;5.11;48.03;99613.72;6211002;28;96567;-69
2022/01/29 04:17:07;;;;;;;;;11.40;9.00;;;;;4.97;48.36;99625.91;6210506;28;96662;-68
2022/01/29 04:20:11;;;;;;;;;9.00;9.00;;;;;4.96;48.53;99620.72;6210486;28;97408;-69
2022/01/29 04:23:14;;;;;;;;;11.40;11.00;;;;;4.93;48.19;99621.91;6210918;28;97401;-68
2022/01/29 04:26:19;;;;;;;;;11.50;11.00;;;;;5.00;48.31;99632.75;6209583;28;98016;-69
2022/01/29 04:29:22;;;;;;;;;10.60;10.00;;;;;4.85;48.57;99627.25;6214280;28;96477;-68
2022/01/29 04:32:33;;;;;;;;;12.00;11.00;;;;;4.83;48.60;99623.91;6193282;28;99685;-69
2022/01/29 04:35:36;;;;;;;;;11.20;10.20;;;;;4.78;48.77;99621.75;6191447;28;97480;-68
2022/01/29 04:38:40;;;;;;;;;12.00;11.80;;;;;4.57;49.17;99623.22;6201190;28;96901;-68
2022/01/29 04:41:45;;;;;;;;;13.25;12.00;;;;;4.59;48.86;99618.56;6192087;28;97275;-68
2022/01/29 04:44:48;;;;;;;;;11.00;11.00;;;;;4.58;48.80;99620.41;6196484;28;99479;-68
2022/01/29 04:47:51;;;;;;;;;13.40;11.60;;;;;4.57;49.03;99617.88;6190507;28;96574;-69
2022/01/29 04:50:54;;;;;;;;;13.00;11.60;;;;;4.62;48.76;99616.41;6211623;28;97788;-69
2022/01/29 04:53:57;;;;;;;;;11.60;10.00;;;;;4.60;48.85;99615.72;6202378;28;97581;-69
2022/01/29 04:57:02;;;;;;;;;12.80;11.40;;;;;4.55;49.06;99619.88;6195371;28;96762;-69
2022/01/29 05:00:08;;;;;;;;;12.60;11.60;;;;;4.56;48.91;99624.22;6214673;28;96922;-68
2022/01/29 05:03:14;;;;;;;;;11.20;10.60;;;;;4.39;49.32;99611.88;6190860;28;96695;-69
2022/01/29 05:06:19;;;;;;;;;14.00;12.00;;;;;4.33;49.13;99608.00;6188871;28;97843;-69
2022/01/29 05:09:22;;;;;;;;;13.00;12.00;;;;;4.38;49.18;99603.03;6189924;28;97909;-69
2022/01/29 05:12:32;;;;;;;;;10.00;9.00;;;;;4.31;48.92;99602.84;6214443;28;96593;-69
2022/01/29 05:15:40;;;;;;;;;13.00;11.40;;;;;4.47;49.07;99585.16;6214420;28;97627;-69
2022/01/29 05:28:55;;;;;;;;;13.00;10.60;;;;;4.42;48.84;99585.66;6208852;28;97075;-69
2022/01/29 05:31:58;;;;;;;;;11.80;10.20;;;;;4.50;48.85;99583.00;6208189;28;96624;-68
2022/01/29 05:35:01;;;;;;;;;11.00;11.00;;;;;4.59;48.65;99576.69;6181092;28;97771;-69
2022/01/29 05:38:15;;;;;;;;;15.00;13.00;;;;;4.41;48.88;99575.13;6203282;28;98402;-69
2022/01/29 05:41:19;;;;;;;;;13.00;11.00;;;;;4.52;48.75;99577.50;6210509;28;97458;-69
2022/01/29 05:44:23;;;;;;;;;13.00;11.00;;;;;4.52;48.47;99577.50;6210414;28;96972;-69
2022/01/29 05:47:27;;;;;;;;;12.00;11.00;;;;;4.59;48.28;99578.50;6214019;28;97381;-69
2022/01/29 05:50:30;;;;;;;;;13.40;12.00;;;;;4.58;48.39;99575.00;6196839;28;98225;-70
2022/01/29 05:53:34;;;;;;;;;10.00;9.00;;;;;4.71;48.08;99577.16;6199801;28;96425;-70
2022/01/29 05:56:38;;;;;;;;;12.25;11.00;;;;;4.67;47.97;99579.34;6213830;28;97075;-70
2022/01/29 05:59:42;;;;;;;;;13.00;12.00;;;;;4.65;48.12;99581.34;6212472;28;97012;-69
2022/01/29 06:02:45;;;;;;;;;11.60;11.00;;;;;4.55;48.37;99572.66;6210322;28;97533;-69
2022/01/29 06:05:49;;;;;;;;;12.00;12.00;;;;;4.65;47.97;99580.50;6191225;28;96545;-70
2022/01/29 06:08:53;;;;;;;;;12.75;11.75;;;;;4.69;48.05;99576.50;6190183;28;96938;-69
2022/01/29 06:11:56;;;;;;;;;12.00;10.00;;;;;4.70;47.73;99573.66;6210246;28;98323;-69
2022/01/29 06:15:01;;;;;;;;;16.00;14.00;;;;;4.72;47.68;99570.81;6190519;28;98966;-69
2022/01/29 06:18:04;;;;;;;;;13.00;12.00;;;;;4.80;47.58;99574.31;6210042;28;97444;-69
2022/01/29 06:21:09;;;;;;;;;12.60;11.00;;;;;4.88;47.60;99576.16;6180219;28;99521;-70
2022/01/29 06:24:12;;;;;;;;;12.00;11.00;;;;;4.91;47.45;99558.94;6189050;28;97406;-68
2022/01/29 06:27:15;;;;;;;;;12.00;11.75;;;;;4.92;47.29;99556.13;6188080;28;97774;-69
2022/01/29 06:30:20;;;;;;;;;11.80;11.80;;;;;5.00;46.75;99558.75;6188466;28;97360;-69
2022/01/29 06:33:26;;;;;;;;;14.00;12.00;;;;;5.24;46.72;99563.22;6211923;28;96921;-68
2022/01/29 06:36:29;;;;;;;;;12.00;11.25;;;;;5.91;45.78;99566.34;6211195;28;97613;-70
2022/01/29 06:39:33;;;;;;;;;18.00;15.00;;;;;6.77;44.00;99568.75;6198931;28;98351;-69
2022/01/29 06:42:36;;;;;;;;;15.50;12.00;;;;;7.58;42.34;99570.59;6211728;28;97815;-70
2022/01/29 06:45:44;;;;;;;;;10.67;9.67;;;;;7.47;42.12;99577.28;6186962;28;97191;-70
2022/01/29 06:48:47;;;;;;;;;14.80;13.00;;;;;7.22;42.37;99562.47;6208716;28;96644;-69
2022/01/29 06:51:53;;;;;;;;;12.40;10.80;;;;;6.93;42.63;99558.72;6208132;28;98024;-70
2022/01/29 06:54:56;;;;;;;;;13.00;12.00;;;;;6.82;43.15;99552.97;6185519;28;98518;-69
2022/01/29 06:58:01;;;;;;;;;12.25;10.25;;;;;6.75;43.07;99550.16;6195464;28;96799;-69
2022/01/29 07:01:26;;;;;;;;;13.60;12.00;;;;;6.76;43.02;99549.16;6207911;28;96693;-69
2022/01/29 07:04:29;;;;;;;;;12.75;11.75;;;;;7.07;42.85;99546.34;6198963;28;98316;-70
2022/01/29 07:07:32;;;;;;;;;12.60;12.00;;;;;7.35;41.90;99527.78;6199359;28;96414;-69
2022/01/29 07:10:37;;;;;;;;;15.00;15.00;;;;;8.47;39.76;99523.72;6206474;28;97223;-70
2022/01/29 07:13:40;;;;;;;;;14.00;13.40;;;;;9.83;36.80;99521.31;6208234;28;96823;-69
2022/01/29 07:16:45;;;;;;;;;14.40;14.00;;;;;11.02;35.53;99522.34;6211016;28;97336;-70
2022/01/29 07:19:49;;;;;;;;;14.00;12.25;;;;;11.86;33.92;99519.69;6198784;28;97338;-70
2022/01/29 07:22:52;;;;;;;;;15.60;14.60;;;;;12.24;32.01;99525.09;6204709;28;98170;-70
2022/01/29 07:25:55;;;;;;;;;13.40;13.00;;;;;12.95;31.85;99522.94;6203740;28;97882;-70
2022/01/29 07:28:59;;;;;;;;;15.20;14.20;;;;;13.64;30.28;99522.66;6209472;28;98355;-70
2022/01/29 07:32:04;;;;;;;;;16.80;14.20;;;;;14.64;28.92;99513.00;6208187;28;100200;-70
2022/01/29 07:35:08;;;;;;;;;14.60;12.00;;;;;15.79;27.42;99526.00;6206817;28;98468;-69
2022/01/29 07:38:13;;;;;;;;;15.00;14.00;;;;;14.43;28.63;99509.97;6209129;28;98421;-70
2022/01/29 07:41:17;;;;;;;;;16.00;13.60;;;;;13.24;29.82;99516.03;6196789;28;98548;-69
2022/01/29 07:44:20;;;;;;;;;16.40;14.00;;;;;12.44;30.78;99505.00;6210916;28;97651;-69
2022/01/29 07:47:25;;;;;;;;;14.80;12.00;;;;;13.74;29.86;99497.72;6210076;28;96682;-70
2022/01/29 07:50:28;;;;;;;;;16.75;15.00;;;;;15.32;27.65;99496.16;6213314;28;96973;-70
2022/01/29 07:53:31;;;;;;;;;17.75;14.25;;;;;16.87;25.62;99499.50;6213137;28;96950;-71
2022/01/29 07:56:35;;;;;;;;;15.20;14.00;;;;;18.35;24.37;99489.50;6202412;28;96948;-72
2022/01/29 07:59:39;;;;;;;;;19.00;17.00;;;;;19.59;22.94;99488.31;6198729;28;98189;-72
2022/01/29 08:02:43;;;;;;;;;19.00;16.00;;;;;20.49;21.50;99489.75;6203787;28;96691;-70
2022/01/29 08:05:47;;;;;;;;;16.00;14.00;;;;;21.48;20.90;99475.47;6207451;28;97522;-70
2022/01/29 08:08:55;;;;;;;;;15.60;13.40;;;;;22.07;19.65;99469.22;6212940;28;97558;-72
2022/01/29 08:11:58;;;;;;;;;15.40;14.00;;;;;22.73;19.59;99461.38;6210916;28;98538;-71
2022/01/29 08:15:03;;;;;;;;;16.20;13.80;;;;;23.24;19.03;99467.25;6209204;28;97054;-71
2022/01/29 08:18:08;;;;;;;;;17.00;16.00;;;;;23.76;18.35;99471.91;6209821;28;96591;-71
2022/01/29 08:21:13;;;;;;;;;17.40;16.00;;;;;23.84;18.38;99465.78;6215054;28;98083;-70
2022/01/29 08:24:16;;;;;;;;;17.40;15.00;;;;;22.16;19.39;99435.38;6217230;28;97400;-71
2022/01/29 08:27:19;;;;;;;;;16.50;14.00;;;;;20.35;21.03;99450.28;6213069;28;97442;-71
2022/01/29 08:30:23;;;;;;;;;19.00;16.00;;;;;18.77;22.89;99445.09;6208796;28;97464;-70
2022/01/29 08:33:28;;;;;;;;;14.75;13.75;;;;;17.41;24.05;99441.69;6213708;28;96866;-69
2022/01/29 08:36:31;;;;;;;;;16.00;14.25;;;;;16.44;25.52;99433.94;6205747;28;97575;-70
2022/01/29 08:39:34;;;;;;;;;14.00;13.75;;;;;16.62;25.70;99431.00;6194977;28;96761;-69
2022/01/29 08:42:38;;;;;;;;;15.75;14.00;;;;;16.77;25.85;99424.97;6211942;28;97421;-69
2022/01/29 08:45:42;;;;;;;;;13.00;13.00;;;;;18.01;24.37;99415.19;6206237;28;96984;-68
2022/01/29 08:48:46;;;;;;;;;15.00;14.00;;;;;19.58;23.05;99415.56;6213474;28;97288;-69
2022/01/29 08:51:50;;;;;;;;;13.60;12.00;;;;;20.42;21.77;99415.25;6205999;28;98002;-71
2022/01/29 08:54:53;;;;;;;;;12.00;9.00;;;;;21.44;21.31;99414.84;6204200;28;96747;-70
2022/01/29 08:57:56;;;;;;;;;10.00;9.75;;;;;22.54;20.13;99409.00;6207901;28;97343;-72
2022/01/29 09:01:00;;;;;;;;;9.60;8.00;;;;;22.93;18.67;99394.41;6195198;28;97992;-69
2022/01/29 09:04:05;;;;;;;;;9.40;8.60;;;;;23.58;18.82;99415.72;6210037;28;97103;-70
2022/01/29 09:07:09;;;;;;;;;8.25;7.00;;;;;24.10;18.29;99411.97;6203582;28;96751;-70
2022/01/29 09:10:13;;;;;;;;;8.25;7.00;;;;;24.56;16.90;99394.78;6207846;28;96876;-72
2022/01/29 09:13:16;;;;;;;;;6.40;6.00;;;;;24.56;17.14;99403.03;6208476;28;97452;-70
2022/01/29 09:16:19;;;;;;;;;7.00;6.00;;;;;24.30;17.73;99404.56;6179157;28;99873;-71
2022/01/29 09:19:24;;;;;;;;;6.00;5.40;;;;;24.19;17.53;99394.81;6211811;28;97282;-71
2022/01/29 09:22:27;;;;;;;;;6.00;5.00;;;;;23.97;17.70;99381.59;6192974;28;96868;-70
2022/01/29 09:25:32;;;;;;;;;6.00;5.25;;;;;23.84;16.83;99380.41;6195891;28;97774;-71
2022/01/29 09:28:35;;;;;;;;;6.60;6.00;;;;;23.57;17.46;99393.97;6207773;28;99085;-71
2022/01/29 09:31:38;;;;;;;;;7.00;6.00;;;;;23.88;17.96;99375.94;6210050;28;96627;-71
2022/01/29 09:34:43;;;;;;;;;6.00;5.00;;;;;23.53;17.41;99376.41;6212145;28;96528;-69
2022/01/29 09:37:46;;;;;;;;;7.00;6.00;;;;;23.57;17.28;99364.53;6207935;28;97094;-72
2022/01/29 09:40:50;;;;;;;;;8.60;6.40;;;;;23.68;17.82;99357.78;6225879;28;97405;-69
2022/01/29 09:43:54;;;;;;;;;6.00;5.80;;;;;23.76;17.68;99359.03;6212413;28;97575;-71
2022/01/29 09:46:58;;;;;;;;;6.00;5.60;;;;;24.03;17.66;99348.19;6213753;28;97090;-71
2022/01/29 09:50:04;;;;;;;;;5.00;5.00;;;;;24.28;17.18;99347.00;6213258;28;96617;-71
2022/01/29 09:53:08;;;;;;;;;5.80;4.20;;;;;24.25;17.37;99355.84;6214227;28;96536;-69
2022/01/29 09:56:11;;;;;;;;;6.00;6.00;;;;;23.96;17.34;99356.00;6210441;28;96703;-69
2022/01/29 09:59:14;;;;;;;;;5.00;5.00;;;;;24.06;17.39;99342.06;6211953;28;97620;-69
2022/01/29 10:02:21;;;;;;;;;6.40;5.00;;;;;24.04;17.34;99336.03;6208540;28;97320;-72
2022/01/29 10:05:34;;;;;;;;;5.00;5.00;;;;;24.05;17.34;99328.59;6208152;28;98084;-70
2022/01/29 10:08:43;;;;;;;;;5.25;5.00;;;;;24.40;17.45;99325.28;6208938;28;97220;-70
2022/01/29 10:11:46;;;;;;;;;5.50;5.00;;;;;24.35;16.89;99322.63;6212306;28;97279;-70
2022/01/29 10:15:10;;;;;;;;;4.00;4.00;;;;;24.07;16.58;99296.06;6206809;28;97415;-71
2022/01/29 10:18:22;;;;;;;;;5.00;4.00;;;;;23.78;16.85;99301.75;6211983;28;97184;-70
2022/01/29 10:21:29;;;;;;;;;4.00;4.00;;;;;23.93;17.15;99300.69;6211160;28;97193;-69
2022/01/29 10:24:50;;;;;;;;;5.40;5.00;;;;;23.91;17.33;99280.91;6207850;28;98624;-71
2022/01/29 10:28:09;;;;;;;;;7.00;5.40;;;;;22.81;17.64;99307.66;6208450;28;96832;-70
2022/01/29 10:31:12;;;;;;;;;5.20;4.00;;;;;21.39;18.77;99304.31;6207782;28;97460;-70
2022/01/29 10:34:21;;;;;;;;;6.00;5.80;;;;;19.82;20.51;99288.13;6210687;28;97286;-69
2022/01/29 10:37:27;;;;;;;;;6.00;6.00;;;;;18.95;21.52;99257.00;6207327;28;97843;-72
2022/01/29 10:40:34;;;;;;;;;4.00;3.60;;;;;18.29;22.26;99266.69;6209196;28;96655;-69
2022/01/29 10:43:37;;;;;;;;;4.20;3.60;;;;;17.49;22.58;99272.25;6215580;28;97537;-71
2022/01/29 10:46:46;;;;;;;;;4.00;4.00;;;;;16.84;23.20;99256.81;6208662;28;97596;-69
2022/01/29 10:49:52;;;;;;;;;3.25;3.00;;;;;16.02;23.96;99245.81;6207154;28;96576;-69
2022/01/29 10:52:57;;;;;;;;;4.00;3.00;;;;;15.46;24.36;99244.84;6206185;28;97995;-68
2022/01/29 10:56:03;;;;;;;;;3.00;3.00;;;;;15.26;24.95;99238.19;6203728;28;96977;-68
2022/01/29 10:59:14;;;;;;;;;4.40;4.00;;;;;16.21;24.39;99246.38;6222546;28;98000;-70
2022/01/29 11:02:20;;;;;;;;;5.00;5.00;;;;;16.62;23.21;99240.44;6177939;28;98176;-71
2022/01/29 11:05:26;;;;;;;;;3.60;3.60;;;;;16.71;22.90;99238.94;6209783;28;97637;-69
2022/01/29 11:08:31;;;;;;;;;4.00;4.00;;;;;16.02;23.74;99235.78;6214138;28;96860;-69
2022/01/29 11:11:36;;;;;;;;;6.80;5.00;;;;;15.47;24.29;99235.63;6211241;28;97534;-70
2022/01/29 11:14:49;;;;;;;;;4.00;4.00;;;;;14.79;25.56;99224.81;6209659;28;97888;-71
2022/01/29 11:17:52;;;;;;;;;5.75;5.00;;;;;14.37;25.96;99216.03;6193851;28;97252;-70
2022/01/29 11:20:56;;;;;;;;;5.40;4.00;;;;;13.80;26.20;99204.97;6212025;28;96840;-70
2022/01/29 11:24:02;;;;;;;;;6.00;5.00;;;;;13.17;27.07;99201.19;6192376;28;98453;-69
2022/01/29 11:27:22;;;;;;;;;5.00;3.50;;;;;12.85;27.69;99198.69;6188958;28;96813;-71
2022/01/29 11:30:26;;;;;;;;;7.60;6.60;;;;;12.57;28.99;99182.19;6191415;28;99825;-69
2022/01/29 11:33:29;;;;;;;;;8.20;7.80;;;;;12.31;29.06;99174.44;6198932;28;96917;-70
2022/01/29 11:37:03;;;;;;;;;7.00;6.00;;;;;12.47;29.08;99166.50;6210317;28;99535;-71
2022/01/29 11:40:17;;;;;;;;;6.75;6.00;;;;;12.74;28.92;99150.78;6204094;28;99441;-70
2022/01/29 11:43:28;;;;;;;;;6.00;6.00;;;;;12.60;28.35;99138.50;6182150;28;96680;-72
2022/01/29 11:46:32;;;;;;;;;6.60;5.60;;;;;12.39;28.89;99131.69;6211309;28;99862;-68
2022/01/29 11:49:36;;;;;;;;;6.00;5.00;;;;;12.14;29.24;99128.25;6208319;28;96603;-68
2022/01/29 11:52:53;;;;;;;;;6.60;6.00;;;;;11.80;29.80;99126.13;6210309;28;96419;-69
2022/01/29 11:55:58;;;;;;;;;9.60;8.00;;;;;11.73;30.43;99101.06;6207595;28;96890;-67
2022/01/29 11:59:27;;;;;;;;;7.60;6.20;;;;;11.91;30.39;99095.66;6209190;28;97435;-71
2022/01/29 12:02:40;;;;;;;;;7.00;6.67;;;;;11.48;31.44;99082.19;6184319;28;97246;-68
2022/01/29 12:06:21;;;;;;;;;8.60;8.00;;;;;11.03;32.07;99076.97;6195931;28;96718;-71
2022/01/29 12:09:27;;;;;;;;;9.20;8.00;;;;;11.16;32.51;99084.94;6210647;28;96968;-69
2022/01/29 12:12:34;;;;;;;;;6.00;6.00;;;;;11.18;32.78;99077.47;6196099;28;96972;-70
2022/01/29 12:15:39;;;;;;;;;6.60;6.40;;;;;11.26;32.96;99069.09;6195121;28;97316;-68
2022/01/29 12:18:42;;;;;;;;;9.00;8.00;;;;;11.05;32.88;99052.44;6193563;28;97373;-68
2022/01/29 12:21:46;;;;;;;;;8.00;8.00;;;;;11.10;33.24;99053.44;6186696;28;97675;-70
2022/01/29 12:24:52;;;;;;;;;7.40;7.40;;;;;10.98;33.80;99057.09;6203113;28;97446;-67
2022/01/29 12:27:58;;;;;;;;;7.00;6.00;;;;;10.84;34.22;99059.91;6209003;28;98600;-69
2022/01/29 12:31:05;;;;;;;;;8.20;8.00;;;;;10.83;34.18;99036.66;6209500;28;97401;-68
2022/01/29 12:34:13;;;;;;;;;7.00;7.00;;;;;10.76;34.69;99018.88;6208682;28;96733;-69
2022/01/29 12:37:18;;;;;;;;;9.00;9.00;;;;;10.52;35.11;99020.50;6194623;28;96690;-71
2022/01/29 12:40:27;;;;;;;;;7.00;6.00;;;;;10.69;35.10;99021.63;6185575;28;97187;-70
2022/01/29 12:43:36;;;;;;;;;7.00;6.00;;;;;10.74;35.36;99015.59;6185630;28;96773;-70
2022/01/29 12:46:41;;;;;;;;;7.40;7.40;;;;;10.64;35.12;98999.06;6186247;28;96606;-67
2022/01/29 12:49:45;;;;;;;;;7.00;6.00;;;;;10.56;35.82;98997.44;6189704;28;96514;-71
2022/01/29 12:52:48;;;;;;;;;7.25;6.00;;;;;10.59;35.30;98997.03;6193431;28;97300;-67
2022/01/29 12:56:03;;;;;;;;;9.00;6.80;;;;;10.53;35.82;98995.22;6212293;28;96604;-71
2022/01/29 12:59:11;;;;;;;;;6.00;6.00;;;;;10.32;36.09;98991.00;6211783;28;99523;-68
2022/01/29 13:02:14;;;;;;;;;7.00;6.25;;;;;10.24;36.34;98979.66;6211222;28;97386;-70
2022/01/29 13:05:20;;;;;;;;;7.75;6.25;;;;;10.35;36.61;98979.78;6204409;28;97777;-70
2022/01/29 13:08:25;;;;;;;;;7.00;6.00;;;;;10.25;36.93;98975.91;6198175;28;96643;-70
2022/01/29 13:11:30;;;;;;;;;10.00;8.00;;;;;10.19;36.91;98966.00;6205097;28;96831;-70
2022/01/29 13:14:35;;;;;;;;;8.00;6.50;;;;;10.04;37.25;98960.88;6189916;28;96685;-67
2022/01/29 13:17:42;;;;;;;;;5.40;4.40;;;;;9.74;37.92;98954.41;6190890;28;96465;-69
2022/01/29 13:20:45;;;;;;;;;7.20;7.00;;;;;9.84;37.74;98954.78;6195385;28;97364;-67
2022/01/29 13:23:48;;;;;;;;;7.00;6.00;;;;;9.69;38.27;98919.25;6197709;28;97053;-68
2022/01/29 13:27:02;;;;;;;;;9.00;7.00;;;;;9.60;38.31;98920.53;6212381;28;99511;-69
2022/01/29 13:30:18;;;;;;;;;9.00;8.00;;;;;9.74;38.94;98946.34;6207420;28;96918;-68
2022/01/29 13:33:22;;;;;;;;;7.40;7.00;;;;;9.40;40.25;98944.84;6200607;28;97180;-69
2022/01/29 13:36:34;;;;;;;;;7.00;6.00;;;;;9.23;40.92;98924.84;6199306;28;96696;-70
2022/01/29 13:39:48;;;;;;;;;7.50;7.00;;;;;9.07;41.26;98915.34;6190715;28;96564;-69
2022/01/29 13:43:01;;;;;;;;;7.00;7.00;;;;;9.02;42.07;98939.38;6207059;28;97810;-68
2022/01/29 13:46:08;;;;;;;;;8.00;7.40;;;;;9.12;42.63;98934.38;6209513;28;97478;-70
2022/01/29 13:49:29;;;;;;;;;7.00;7.00;;;;;8.93;43.59;98927.19;6212172;28;97185;-69
2022/01/29 13:52:32;;;;;;;;;10.00;8.00;;;;;8.86;43.94;98924.50;6183598;28;97348;-68
2022/01/29 13:55:39;;;;;;;;;10.75;8.75;;;;;8.63;45.06;98911.53;6205536;28;96576;-71
2022/01/29 13:58:53;;;;;;;;;9.00;8.33;;;;;8.66;45.04;98921.84;6207909;28;97818;-69
2022/01/29 14:02:05;;;;;;;;;10.75;8.75;;;;;8.57;45.73;98909.66;6209384;28;97435;-69
2022/01/29 14:05:09;;;;;;;;;8.60;8.00;;;;;8.57;45.79;98901.59;6206753;28;97314;-69
2022/01/29 14:08:16;;;;;;;;;8.40;7.40;;;;;8.41;46.19;98893.94;6207091;28;97010;-70
2022/01/29 14:11:19;;;;;;;;;9.00;8.20;;;;;8.48;46.70;98877.84;6205792;28;97488;-68
2022/01/29 14:14:24;;;;;;;;;8.60;8.00;;;;;8.45;46.74;98872.91;6210848;28;96856;-70
2022/01/29 14:17:30;;;;;;;;;9.20;8.20;;;;;8.41;46.49;98866.25;6209418;28;97023;-69
2022/01/29 14:20:33;;;;;;;;;11.00;10.00;;;;;8.42;46.45;98859.84;6189245;28;96505;-69
2022/01/29 14:23:36;;;;;;;;;9.50;9.00;;;;;8.34;46.53;98847.47;6210678;28;99620;-70
2022/01/29 14:26:53;;;;;;;;;9.40;8.00;;;;;8.38;46.44;98850.56;6211022;28;96513;-69
2022/01/29 14:29:57;;;;;;;;;9.20;7.80;;;;;8.42;46.30;98838.38;6208675;28;97489;-70
2022/01/29 14:33:01;;;;;;;;;9.60;9.00;;;;;8.42;46.17;98833.00;6204578;28;96726;-68
2022/01/29 14:36:05;;;;;;;;;9.40;9.00;;;;;8.33;45.81;98810.06;6203322;28;98403;-69
2022/01/29 14:39:09;;;;;;;;;10.00;9.20;;;;;8.44;45.61;98790.63;6199609;28;98468;-69
2022/01/29 14:42:13;;;;;;;;;12.00;10.00;;;;;8.40;45.97;98810.91;6199411;28;96596;-67